メインページ
METAR-TAF:

METAR-TAF

空港 :

ニューオーリンズ, ルイジアナ州, アメリカ合衆国

ルイ・アームストロング・ニューオーリンズ国際空港

緯度: 29-59-34N, 経度: 090-15-03W, 海抜: 1m

現時点の気象観測

当レポートは47分前の13:53(UTC)に作成
東/南東の風 6kt
気温 14°C
湿度 94%
気圧 1021 hPa
視程: 14.5km
高度3600ftの雲はほとんどない

METAR: KMSY 211353Z 11006KT 9SM FEW036 14/13 A3015 RMK AO2 SLP214 T01390133

時間: 08:40 (14:40 UTC)

予報

当レポートは3時間13分前の11:27(UTC)に作成
予報は21日の 12時(UTC)から 22日の 18時(UTC)まで有効
東/南東の風 6kt
視程: 10km
高度25000ftの雲は散在している
21日の 2000時(UTC)から
南東の風 10kt
視程: 10km
高度2500ftの千切れ雲あり
22日の 0200時(UTC)から
南東の風 9kt
視程: 9.7km
高度4500ftの千切れ雲あり
22日の 0900時(UTC)から
の風 8kt
視程: 4.8km
高度1000ftの曇り
22日の 1200時(UTC)から
の風 8kt
視程: 6.4km
高度1000ftの曇り
小雨
確率 30%
22日の 12時(UTC)から 22日の 17時(UTC)まで
視程: 3.2km
高度700ftの曇り, 積乱雲.
激しい雷雨, 雨
22日の 1700時(UTC)から
南西の風 11kt
視程: 8.0km
高度1000ftの千切れ雲あり
小雨

TAF: KMSY 211127Z 2112/2218 12006KT P6SM SCT250 FM212000 13010KT P6SM BKN025 FM220200 13009KT 6SM BR BKN045 FM220900 17008KT 3SM BR OVC010 FM221200 17008KT 4SM -RA OVC010 PROB30 2212/2217 2SM TSRA OVC007CB FM221700 23011KT 5SM -RA BKN010

4,000以上の空港の気象観測と天気予報(METAR報とTAF報)

利用可能な観測所は地図上に黄色い丸と赤い丸で示す。

丸の上にカーソルを重ねると観測所名を参照できる。

次にクリックすると気象観測と天気予報を参照できる。

マップの切り替え:黒色「×」印の緑ボタンをクリックして拡大、「-」印の緑ボタンをクリックして縮小、緑色の三角印をクリックして隣りの地図に切り替え


METAR-TAF: